Hasle, Denmark
Current Conditions -  °F | °C
As of 4:50 PM on Friday 28 Nov 2014 (Local Time) from EKRN Reporting Station
Scattered Clouds Scattered Clouds  
Wind Chill: 26°   Ceiling: Unl
Heat Index: 34°   Visibility: 6mi
Dew Point: 28°   Wind: 9mph
Humidity: 81%   Direction: 80°E
Pressure: 30.3"   Gusts: NA
Location:  55.18°N, 14.71°E
Report Text: EKRN 281550Z AUTO 08008KT 9999NDV FEW028/// SCT043///01/M02 Q1026
Loading
Personal Weather Stations






























Interactive Weather Map New forecast layout! Learn more

10-Day Weather Forecast

Advertisements
Track Severe Weather on mobile